Time;durP1;ratioP1;P1;durP2;ratioP2;P2;SDS_P1;SDS_P2;PMS_P1;PMS_P2;Temp;Humidity;BMP_temperature;BMP_pressure;BME280_temperature;BME280_humidity;BME280_pressure;Samples;Min_cycle;Max_cycle;Signal;HPM_P1;HPM_P2
2023/10/10 00:03:55;;;;;;;9.52;4.35;;;;;;;16.10;100.00;100281.25;12166800;19;20073;-81
2023/10/10 00:07:59;;;;;;;9.68;5.18;;;;;;;16.07;100.00;100280.97;12191417;19;20002;-81
2023/10/10 00:12:03;;;;;;;10.90;4.38;;;;;;;16.03;100.00;100283.47;12182292;19;20035;-81
2023/10/10 00:16:05;;;;;;;15.63;4.47;;;;;;;15.99;100.00;100287.91;12159221;19;20603;-80
2023/10/10 00:20:16;;;;;;;8.85;4.78;;;;;;;15.96;100.00;100288.44;12159259;19;20015;-80
2023/10/10 00:24:29;;;;;;;8.95;4.63;;;;;;;15.91;100.00;100282.88;12155032;19;20011;-82
2023/10/10 00:28:34;;;;;;;15.30;4.65;;;;;;;15.87;100.00;100285.38;12177609;19;20019;-79
2023/10/10 00:32:40;;;;;;;9.10;4.95;;;;;;;15.86;100.00;100280.09;12176639;19;20007;-81
2023/10/10 00:36:42;;;;;;;18.70;5.65;;;;;;;15.83;100.00;100278.69;12161170;19;20010;-79
2023/10/10 00:40:47;;;;;;;14.67;5.07;;;;;;;15.81;100.00;100268.97;12165360;19;20014;-81
2023/10/10 00:44:49;;;;;;;10.68;4.88;;;;;;;15.76;100.00;100266.97;12162816;19;20019;-81
2023/10/10 00:49:00;;;;;;;10.38;5.15;;;;;;;15.70;100.00;100273.63;12161778;19;20010;-80
2023/10/10 00:53:04;;;;;;;9.23;4.70;;;;;;;15.63;100.00;100273.03;12172896;19;20006;-82
2023/10/10 00:57:08;;;;;;;12.93;4.97;;;;;;;15.59;100.00;100267.19;12184653;19;20015;-79
2023/10/10 01:01:10;;;;;;;12.63;5.35;;;;;;;15.55;100.00;100260.50;12152765;19;20007;-81
2023/10/10 01:05:12;;;;;;;10.43;4.53;;;;;;;15.55;100.00;100260.50;12172673;19;20011;-81
2023/10/10 01:09:20;;;;;;;11.80;5.00;;;;;;;15.57;100.00;100274.13;12160023;19;20018;-80
2023/10/10 01:13:22;;;;;;;12.90;5.18;;;;;;;15.58;100.00;100264.66;12191446;19;20751;-80
2023/10/10 01:17:30;;;;;;;13.02;5.05;;;;;;;15.45;100.00;100268.78;12187932;19;20031;-79
2023/10/10 01:21:43;;;;;;;9.07;4.90;;;;;;;15.40;100.00;100268.75;12171941;19;20038;-80
2023/10/10 01:25:47;;;;;;;11.95;5.28;;;;;;;15.36;100.00;100265.69;12207812;19;20003;-80
2023/10/10 01:29:50;;;;;;;11.65;5.38;;;;;;;15.31;100.00;100264.84;12213269;19;20531;-80
2023/10/10 01:33:59;;;;;;;11.60;4.85;;;;;;;15.27;100.00;100264.53;12189030;19;20014;-79
2023/10/10 01:38:03;;;;;;;10.13;4.80;;;;;;;15.21;100.00;100260.06;12215765;19;20010;-80
2023/10/10 01:42:10;;;;;;;16.73;6.57;;;;;;;15.17;100.00;100264.47;12208455;19;20011;-80
2023/10/10 01:46:28;;;;;;;13.85;6.00;;;;;;;15.13;100.00;100255.84;12190347;19;20014;-82
2023/10/10 01:50:30;;;;;;;12.00;4.75;;;;;;;15.09;100.00;100251.13;12214745;19;20070;-81
2023/10/10 01:54:40;;;;;;;11.57;5.25;;;;;;;15.06;100.00;100254.44;12194463;19;20014;-79
2023/10/10 01:58:43;;;;;;;16.83;5.40;;;;;;;15.03;100.00;100255.81;12215054;19;20419;-79
2023/10/10 02:02:48;;;;;;;10.02;5.25;;;;;;;15.01;100.00;100244.13;12199182;19;20010;-80
2023/10/10 02:06:56;;;;;;;16.02;6.47;;;;;;;14.99;100.00;100247.19;12182172;19;20282;-81
2023/10/10 02:11:02;;;;;;;12.63;5.30;;;;;;;14.98;100.00;100241.91;12204916;19;20010;-80
2023/10/10 02:15:11;;;;;;;11.32;5.85;;;;;;;14.99;100.00;100243.56;12206372;19;20031;-81
2023/10/10 02:19:24;;;;;;;11.70;5.68;;;;;;;14.99;100.00;100246.34;12182009;19;20002;-79
2023/10/10 02:23:37;;;;;;;9.98;4.90;;;;;;;14.99;100.00;100249.97;12192859;19;20003;-80
2023/10/10 02:27:56;;;;;;;11.63;4.80;;;;;;;14.97;100.00;100241.06;12175106;19;20055;-79
2023/10/10 02:32:12;;;;;;;10.38;4.28;;;;;;;14.95;100.00;100250.75;12196312;19;20006;-81
2023/10/10 02:36:16;;;;;;;10.02;5.07;;;;;;;14.89;100.00;100243.50;12172856;19;20007;-81
2023/10/10 02:40:18;;;;;;;10.77;5.85;;;;;;;14.84;100.00;100243.47;12193543;19;20046;-80
2023/10/10 02:44:27;;;;;;;12.27;5.50;;;;;;;14.76;100.00;100247.59;12190785;19;20018;-81
2023/10/10 02:48:34;;;;;;;13.68;4.93;;;;;;;14.73;100.00;100245.34;12175188;19;20028;-82
2023/10/10 02:52:39;;;;;;;12.65;5.78;;;;;;;14.72;100.00;100243.66;12196018;19;20030;-80
2023/10/10 02:56:43;;;;;;;10.43;5.43;;;;;;;14.70;100.00;100241.19;12203249;19;20480;-80
2023/10/10 03:00:47;;;;;;;10.13;5.00;;;;;;;14.71;100.00;100239.22;12177040;19;20010;-81
2023/10/10 03:05:14;;;;;;;8.75;4.68;;;;;;;14.72;100.00;100240.91;12198899;19;20010;-81
2023/10/10 03:09:38;;;;;;;9.65;5.55;;;;;;;14.73;100.00;100242.59;12180605;19;20002;-81
2023/10/10 03:13:42;;;;;;;8.48;4.78;;;;;;;14.72;100.00;100244.53;12196621;19;21188;-80
2023/10/10 03:17:49;;;;;;;9.27;4.80;;;;;;;14.73;100.00;100243.41;12200422;19;19998;-80
2023/10/10 03:22:17;;;;;;;9.30;5.00;;;;;;;14.72;100.00;100235.34;12177134;19;20033;-81
2023/10/10 03:26:21;;;;;;;11.43;5.10;;;;;;;14.71;100.00;100242.84;12199568;19;20019;-81
2023/10/10 03:30:50;;;;;;;12.48;4.97;;;;;;;14.70;100.00;100243.94;12179209;19;20086;-80
2023/10/10 03:34:57;;;;;;;11.63;4.72;;;;;;;14.69;100.00;100244.19;12197148;19;20014;-81
2023/10/10 03:39:17;;;;;;;15.32;6.40;;;;;;;14.67;100.00;100243.66;12198715;19;20030;-78
2023/10/10 05:23:34;;;;;;;10.93;5.63;;;;;;;13.98;100.00;100236.06;12190762;19;20010;-80
2023/10/10 05:27:41;;;;;;;12.57;5.28;;;;;;;13.96;100.00;100244.66;12170163;19;20030;-80
2023/10/10 05:31:44;;;;;;;9.52;5.28;;;;;;;13.96;100.00;100247.44;12193184;19;20010;-79
2023/10/10 05:35:49;;;;;;;13.88;5.40;;;;;;;13.94;100.00;100241.31;12171372;19;20394;-79
2023/10/10 05:39:56;;;;;;;10.77;5.65;;;;;;;13.93;100.00;100247.97;12177941;19;20596;-79
2023/10/10 05:43:59;;;;;;;10.88;5.43;;;;;;;13.94;100.00;100254.34;12191396;19;20007;-79
2023/10/10 05:48:01;;;;;;;17.35;6.53;;;;;;;13.95;100.00;100261.53;12202148;19;20070;-79
2023/10/10 05:52:03;;;;;;;11.97;5.20;;;;;;;13.97;100.00;100251.88;12180189;19;20015;-79
2023/10/10 05:56:15;;;;;;;11.53;4.70;;;;;;;14.02;100.00;100253.88;12205475;19;20007;-78
2023/10/10 06:00:19;;;;;;;14.75;5.70;;;;;;;14.09;100.00;100265.56;12187765;19;20007;-79
2023/10/10 06:04:21;;;;;;;11.77;4.88;;;;;;;14.15;100.00;100261.75;12209266;19;20289;-78
2023/10/10 06:08:25;;;;;;;11.75;5.07;;;;;;;14.26;100.00;100265.47;12210725;19;20604;-80
2023/10/10 06:12:28;;;;;;;12.65;5.18;;;;;;;14.35;100.00;100281.34;12183827;19;20034;-79
2023/10/10 06:16:32;;;;;;;15.43;6.03;;;;;;;14.44;100.00;100270.59;12203485;19;20070;-78
2023/10/10 06:20:44;;;;;;;12.18;5.15;;;;;;;14.54;100.00;100272.66;12205088;19;20027;-79
2023/10/10 06:25:09;;;;;;;9.23;4.07;;;;;;;14.64;100.00;100269.97;12182836;19;20011;-80
2023/10/10 06:34:49;;;;;;;15.45;5.65;;;;;;;14.78;100.00;100276.75;12101420;19;2004720;-79
2023/10/10 06:38:59;;;;;;;14.00;6.10;;;;;;;14.85;100.00;100289.56;12204591;19;20065;-79
2023/10/10 06:43:07;;;;;;;14.65;5.82;;;;;;;14.87;100.00;100279.84;12177124;19;20017;-80
2023/10/10 06:47:10;;;;;;;13.00;5.80;;;;;;;14.91;100.00;100281.00;12200991;19;20765;-79
2023/10/10 06:51:22;;;;;;;13.57;5.35;;;;;;;14.97;100.00;100279.91;12187359;19;20018;-79
2023/10/10 06:55:27;;;;;;;13.57;5.75;;;;;;;15.01;100.00;100285.75;12205575;19;20079;-79
2023/10/10 06:59:29;;;;;;;14.43;5.32;;;;;;;15.00;100.00;100281.31;12204603;19;20014;-79
2023/10/10 07:03:39;;;;;;;13.18;5.20;;;;;;;15.02;100.00;100290.19;12181597;19;20014;-79
2023/10/10 07:07:42;;;;;;;12.95;5.30;;;;;;;15.14;100.00;100290.00;12205301;19;20060;-80
2023/10/10 07:11:49;;;;;;;14.60;6.10;;;;;;;15.22;100.00;100292.28;12202958;19;20015;-80
2023/10/10 07:15:52;;;;;;;14.73;5.68;;;;;;;15.38;100.00;100293.22;12182893;19;20094;-79
2023/10/10 07:24:05;;;;;;;17.08;5.60;;;;;;;15.79;100.00;100298.94;12200362;19;19942;-80
2023/10/10 07:28:12;;;;;;;13.05;6.10;;;;;;;16.01;100.00;100296.81;12183166;19;20014;-79
2023/10/10 07:32:16;;;;;;;13.98;5.75;;;;;;;16.14;100.00;100301.00;12203218;19;20501;-80
2023/10/10 07:36:20;;;;;;;15.90;6.38;;;;;;;16.21;100.00;100300.72;12182251;19;20006;-79
2023/10/10 07:40:31;;;;;;;11.68;5.55;;;;;;;16.31;100.00;100297.97;12202492;19;20029;-79
2023/10/10 07:44:34;;;;;;;12.30;5.57;;;;;;;16.40;100.00;100305.50;12198764;19;20049;-80
2023/10/10 07:52:39;;;;;;;13.48;5.43;;;;;;;16.75;100.00;100289.94;12204110;19;20054;-79
2023/10/10 07:56:45;;;;;;;13.63;6.30;;;;;;;16.92;100.00;100278.50;12203369;19;20007;-79
2023/10/10 08:00:48;;;;;;;14.50;6.68;;;;;;;17.05;100.00;100289.09;12184128;19;20093;-80
2023/10/10 08:05:09;;;;;;;15.53;5.80;;;;;;;17.29;100.00;100283.72;12199689;19;20010;-79
2023/10/10 08:09:23;;;;;;;13.60;6.05;;;;;;;17.51;100.00;100286.16;12180457;19;21330;-80
2023/10/10 08:13:28;;;;;;;12.80;5.95;;;;;;;17.72;100.00;100286.06;12201151;19;20384;-80
2023/10/10 08:17:35;;;;;;;13.25;5.78;;;;;;;17.90;100.00;100287.41;12199506;19;20023;-79
2023/10/10 08:21:39;;;;;;;14.98;5.90;;;;;;;18.03;100.00;100286.78;12178783;19;20014;-80
2023/10/10 08:25:42;;;;;;;18.52;8.07;;;;;;;18.18;100.00;100278.31;12200224;19;20021;-79
2023/10/10 08:29:45;;;;;;;14.32;6.80;;;;;;;18.33;100.00;100279.34;12204684;19;20006;-80
2023/10/10 08:33:47;;;;;;;13.95;6.60;;;;;;;18.52;100.00;100276.69;12178232;19;20003;-80
2023/10/10 08:37:51;;;;;;;14.95;7.85;;;;;;;18.65;100.00;100281.59;12200261;19;20007;-80
2023/10/10 08:41:53;;;;;;;14.60;6.70;;;;;;;18.83;99.15;100278.13;12200794;19;20032;-79
2023/10/10 08:45:56;;;;;;;17.40;6.90;;;;;;;18.96;97.54;100284.97;12173295;19;20006;-81
2023/10/10 08:50:00;;;;;;;19.30;7.90;;;;;;;18.95;98.28;100276.88;12201709;19;20003;-80
2023/10/10 08:54:09;;;;;;;13.85;6.30;;;;;;;19.07;96.53;100282.91;12202580;19;20010;-79
2023/10/10 08:58:13;;;;;;;15.63;7.72;;;;;;;19.28;95.89;100292.75;12179676;19;20105;-79
2023/10/10 09:02:16;;;;;;;16.98;6.53;;;;;;;19.42;94.71;100292.84;12199145;19;20027;-80
2023/10/10 09:06:21;;;;;;;19.15;8.43;;;;;;;19.45;94.41;100283.88;12179317;19;20010;-80
2023/10/10 09:10:28;;;;;;;18.75;7.18;;;;;;;19.57;93.00;100280.66;12202225;19;20003;-81
2023/10/10 09:14:49;;;;;;;16.35;6.85;;;;;;;19.81;91.22;100289.06;12199776;19;20015;-80
2023/10/10 09:19:11;;;;;;;19.75;7.45;;;;;;;20.01;89.95;100297.16;12177559;19;20027;-80
2023/10/10 09:23:27;;;;;;;16.27;6.72;;;;;;;20.17;88.94;100289.41;12199088;19;20034;-80
2023/10/10 09:27:35;;;;;;;14.98;6.90;;;;;;;20.26;88.26;100281.97;12178627;19;20016;-80
2023/10/10 09:31:39;;;;;;;15.48;7.00;;;;;;;20.41;86.36;100277.28;12209494;19;20011;-80
2023/10/10 09:35:48;;;;;;;17.90;6.80;;;;;;;20.58;85.69;100287.94;12209439;19;20027;-79
2023/10/10 09:39:55;;;;;;;15.40;6.57;;;;;;;20.68;86.03;100271.00;12190376;19;20014;-79
2023/10/10 09:48:33;;;;;;;15.82;6.63;;;;;;;20.87;82.66;100273.72;12185246;19;20021;-78
2023/10/10 09:52:57;;;;;;;13.43;6.18;;;;;;;20.98;79.50;100277.19;12219046;19;20087;-79
2023/10/10 09:57:08;;;;;;;13.35;6.25;;;;;;;21.11;79.80;100262.38;12207192;19;20034;-82
2023/10/10 10:01:19;;;;;;;13.32;6.20;;;;;;;21.20;79.87;100268.91;12193668;19;20473;-80
2023/10/10 10:05:28;;;;;;;17.27;7.30;;;;;;;21.24;79.46;100255.09;12211551;19;20015;-79
2023/10/10 10:10:09;;;;;;;13.40;6.18;;;;;;;21.46;77.86;100268.44;12193522;19;20065;-79
2023/10/10 10:14:46;;;;;;;11.85;5.22;;;;;;;21.57;75.50;100261.50;12212662;19;20014;-80
2023/10/10 10:18:52;;;;;;;14.48;5.40;;;;;;;21.63;74.51;100262.22;12194893;19;20026;-80
2023/10/10 10:22:54;;;;;;;13.80;6.13;;;;;;;21.64;72.18;100264.69;12216128;19;20026;-80
2023/10/10 10:27:14;;;;;;;11.80;5.43;;;;;;;21.75;72.56;100262.53;12205541;19;20017;-80
2023/10/10 10:31:16;;;;;;;13.35;5.93;;;;;;;21.82;71.80;100258.13;12189374;19;20399;-80
2023/10/10 10:35:36;;;;;;;18.17;5.50;;;;;;;22.04;72.51;100253.72;12216542;19;20386;-80
2023/10/10 10:40:22;;;;;;;13.85;6.20;;;;;;;22.20;70.57;100252.25;12189779;19;20034;-79
2023/10/10 10:44:09;;;;;;;13.00;5.53;;;;;;;22.46;67.79;100260.91;12209865;19;20007;-80
2023/10/10 10:48:30;;;;;;;15.48;6.18;;;;;;;22.73;64.78;100251.50;12184057;19;20347;-80
2023/10/10 10:53:04;;;;;;;16.60;6.72;;;;;;;23.02;62.02;100255.00;12210208;19;20009;-80
2023/10/10 10:57:07;;;;;;;11.57;5.65;;;;;;;23.25;63.46;100244.53;12210646;19;20354;-80
2023/10/10 11:01:16;;;;;;;16.38;6.63;;;;;;;23.30;62.10;100245.22;12185498;19;20006;-79
2023/10/10 11:05:29;;;;;;;15.32;6.35;;;;;;;23.41;60.98;100237.31;12207606;19;20006;-80
2023/10/10 11:09:33;;;;;;;15.80;5.80;;;;;;;23.54;58.86;100243.97;12181647;19;20021;-79
2023/10/10 11:13:35;;;;;;;11.98;5.32;;;;;;;23.71;58.46;100234.75;12204401;19;20457;-79
2023/10/10 11:17:40;;;;;;;13.47;5.23;;;;;;;23.88;58.33;100234.78;12207361;19;20472;-79
2023/10/10 11:21:47;;;;;;;15.95;6.07;;;;;;;23.88;57.53;100235.66;12184878;19;20014;-80
2023/10/10 11:26:00;;;;;;;14.82;6.15;;;;;;;23.69;56.51;100228.63;12192818;19;20029;-80
2023/10/10 11:30:08;;;;;;;14.50;6.43;;;;;;;23.71;58.27;100223.50;12208374;19;20467;-80
2023/10/10 11:34:10;;;;;;;10.55;5.30;;;;;;;23.86;58.73;100225.88;12184629;19;20014;-79
2023/10/10 11:38:16;;;;;;;;;;;;;;;24.02;58.73;100215.78;12208949;19;20357;-79
2023/10/10 11:42:33;;;;;;;16.27;6.35;;;;;;;24.29;56.02;100217.44;12182834;19;19911;-78
2023/10/10 11:46:38;;;;;;;10.93;5.03;;;;;;;24.58;54.56;100207.50;12206133;19;20520;-79
2023/10/10 11:50:52;;;;;;;12.52;5.10;;;;;;;24.83;54.70;100205.75;12207486;19;20018;-79
2023/10/10 11:54:55;;;;;;;11.90;5.60;;;;;;;25.01;53.38;100190.44;12181782;19;20003;-79
2023/10/10 11:58:57;;;;;;;10.15;4.88;;;;;;;25.15;52.78;100193.06;12207236;19;20014;-81
2023/10/10 12:03:04;;;;;;;13.40;5.90;;;;;;;25.23;51.69;100177.28;12207149;19;20014;-79
2023/10/10 12:07:06;;;;;;;11.50;5.25;;;;;;;25.25;51.81;100180.59;12178396;19;20010;-79
2023/10/10 12:11:15;;;;;;;14.40;5.60;;;;;;;25.21;52.75;100177.63;12214567;19;20066;-78
2023/10/10 12:15:19;;;;;;;12.25;5.25;;;;;;;25.14;51.33;100165.25;12198750;19;20006;-80
2023/10/10 12:19:21;;;;;;;15.82;5.47;;;;;;;25.17;51.73;100164.56;12213349;19;20018;-79
2023/10/10 12:23:23;;;;;;;10.30;5.40;;;;;;;25.22;51.20;100162.38;12201395;19;20007;-79
2023/10/10 12:27:30;;;;;;;11.70;5.13;;;;;;;25.38;51.70;100156.97;12180821;19;20355;-79
2023/10/10 12:31:34;;;;;;;16.20;5.13;;;;;;;25.35;51.69;100154.81;12202385;19;19999;-79
2023/10/10 12:35:36;;;;;;;12.70;5.10;;;;;;;25.34;51.49;100150.34;12192840;19;20136;-79
2023/10/10 12:39:38;;;;;;;12.23;5.07;;;;;;;25.57;51.42;100148.03;12174610;19;20007;-80
2023/10/10 12:43:41;;;;;;;9.23;5.40;;;;;;;25.86;50.29;100147.19;12194757;19;20041;-80
2023/10/10 12:47:43;;;;;;;8.60;4.80;;;;;;;26.07;49.14;100150.00;12197343;19;20753;-79
2023/10/10 12:51:45;;;;;;;9.05;5.38;;;;;;;26.31;48.08;100145.63;12179019;19;20046;-80
2023/10/10 12:55:49;;;;;;;11.63;4.97;;;;;;;26.41;47.55;100145.19;12246735;19;19999;-80
2023/10/10 12:59:51;;;;;;;10.57;5.47;;;;;;;26.13;46.33;100142.16;12245953;19;19999;-80
2023/10/10 13:03:53;;;;;;;15.88;5.85;;;;;;;25.76;47.51;100135.44;12223680;19;20517;-80
2023/10/10 13:07:58;;;;;;;14.80;5.03;;;;;;;25.50;48.71;100130.00;12246969;19;20025;-80
2023/10/10 13:12:02;;;;;;;11.60;5.57;;;;;;;25.31;48.32;100130.44;12244338;19;20030;-80
2023/10/10 13:16:22;;;;;;;12.65;5.80;;;;;;;25.21;48.39;100131.69;12225970;19;20054;-80
2023/10/10 13:20:24;;;;;;;12.52;5.32;;;;;;;25.12;49.14;100126.06;12243887;19;20023;-80
2023/10/10 13:24:26;;;;;;;11.20;5.72;;;;;;;25.05;49.06;100119.31;12206892;19;20009;-80
2023/10/10 13:28:29;;;;;;;17.05;6.18;;;;;;;24.94;49.12;100121.66;12201781;19;20402;-80
2023/10/10 13:32:31;;;;;;;10.40;5.13;;;;;;;24.81;49.23;100115.09;12204643;19;20383;-79
2023/10/10 13:36:35;;;;;;;12.95;5.43;;;;;;;24.67;49.37;100112.50;12181564;19;20002;-80
2023/10/10 13:40:46;;;;;;;12.98;5.05;;;;;;;24.38;49.92;100116.03;12198213;19;20016;-79
2023/10/10 13:44:48;;;;;;;11.43;5.60;;;;;;;24.24;50.22;100104.13;12198086;19;20010;-79
2023/10/10 13:48:50;;;;;;;12.10;5.25;;;;;;;24.14;50.71;100108.13;12175889;19;20006;-79
2023/10/10 13:52:53;;;;;;;12.05;5.03;;;;;;;24.07;50.54;100099.38;12193570;19;20006;-79
2023/10/10 13:56:56;;;;;;;;;;;;;;;23.95;50.89;100099.22;12199074;19;20035;-79
2023/10/10 14:01:14;;;;;;;13.93;5.45;;;;;;;23.87;51.29;100101.69;12174294;19;20653;-79
2023/10/10 14:05:19;;;;;;;12.40;5.80;;;;;;;23.82;51.62;100101.03;12195261;19;20011;-79
2023/10/10 14:09:24;;;;;;;12.13;5.68;;;;;;;23.80;50.99;100100.56;12170739;19;20370;-79
2023/10/10 14:13:28;;;;;;;12.75;5.38;;;;;;;23.83;50.89;100097.09;12194287;19;20007;-79
2023/10/10 14:17:30;;;;;;;12.45;5.30;;;;;;;23.81;50.62;100102.22;12200095;19;20010;-79
2023/10/10 14:21:38;;;;;;;11.82;5.85;;;;;;;23.73;50.70;100086.16;12183062;19;20015;-79
2023/10/10 14:25:45;;;;;;;12.45;5.65;;;;;;;23.77;50.75;100090.78;12200473;19;20010;-79
2023/10/10 14:29:47;;;;;;;11.88;5.55;;;;;;;23.91;50.62;100086.97;12202415;19;20028;-79
2023/10/10 14:33:51;;;;;;;10.90;4.68;;;;;;;23.99;50.51;100078.50;12179745;19;20386;-79
2023/10/10 14:37:57;;;;;;;11.50;5.00;;;;;;;23.97;50.42;100082.81;12203125;19;20582;-80
2023/10/10 14:42:03;;;;;;;13.70;4.95;;;;;;;24.02;50.66;100085.47;12200917;19;20010;-79
2023/10/10 14:46:09;;;;;;;11.23;5.70;;;;;;;24.10;51.04;100082.63;12181560;19;20011;-79
2023/10/10 14:50:12;;;;;;;11.10;4.63;;;;;;;24.16;50.31;100086.13;12203118;19;20006;-79
2023/10/10 14:54:19;;;;;;;10.80;4.80;;;;;;;24.26;49.93;100073.66;12180587;19;20006;-79
2023/10/10 14:58:21;;;;;;;11.57;5.47;;;;;;;24.31;49.67;100070.66;12205333;19;20029;-79
2023/10/10 15:02:26;;;;;;;11.50;5.47;;;;;;;24.34;49.93;100078.44;12198813;19;20010;-79
2023/10/10 15:06:29;;;;;;;16.15;4.78;;;;;;;24.20;49.68;100083.44;12177982;19;20103;-80
2023/10/10 15:10:40;;;;;;;11.82;5.40;;;;;;;24.03;50.58;100079.50;12204189;19;20360;31
2023/10/10 15:14:44;;;;;;;12.97;4.93;;;;;;;23.88;50.96;100072.41;12200090;19;20042;-79
2023/10/10 15:18:47;;;;;;;12.48;4.97;;;;;;;23.75;51.92;100081.84;12177421;19;20014;-79
2023/10/10 15:22:51;;;;;;;12.23;5.00;;;;;;;23.67;51.93;100075.03;12203879;19;20668;-79
2023/10/10 15:26:55;;;;;;;15.05;5.22;;;;;;;23.59;52.36;100070.25;12199097;19;20002;-79
2023/10/10 15:30:58;;;;;;;11.15;5.38;;;;;;;23.50;52.78;100071.38;12180404;19;20021;-79
2023/10/10 15:35:00;;;;;;;11.65;5.22;;;;;;;23.38;53.53;100078.50;12198811;19;20006;-79
2023/10/10 15:39:05;;;;;;;10.83;4.73;;;;;;;23.28;54.42;100073.19;12201878;19;20011;-79
2023/10/10 15:43:16;;;;;;;11.57;5.38;;;;;;;23.16;55.36;100073.81;12176760;19;20479;-79
2023/10/10 15:47:34;;;;;;;14.25;5.57;;;;;;;23.07;55.42;100081.41;12200574;19;20010;-79
2023/10/10 15:51:39;;;;;;;13.80;5.53;;;;;;;22.94;56.44;100076.75;12178570;19;20031;-78
2023/10/10 15:55:42;;;;;;;12.77;5.28;;;;;;;22.81;57.52;100072.88;12197074;19;20031;-79
2023/10/10 15:59:44;;;;;;;13.23;4.43;;;;;;;22.68;58.38;100068.22;12197274;19;20016;-79
2023/10/10 16:03:51;;;;;;;13.45;5.35;;;;;;;22.56;59.06;100077.25;12174740;19;20006;-79
2023/10/10 16:07:58;;;;;;;12.88;5.20;;;;;;;22.43;59.49;100076.22;12198382;19;20042;-79
2023/10/10 16:12:12;;;;;;;13.02;6.13;;;;;;;22.26;60.37;100071.31;12181038;19;20078;-79
2023/10/10 16:16:18;;;;;;;12.93;5.10;;;;;;;22.15;60.71;100075.50;12199540;19;20094;-78
2023/10/10 16:20:23;;;;;;;12.88;5.28;;;;;;;21.99;62.03;100077.06;12197362;19;20027;-79
2023/10/10 16:24:27;;;;;;;14.30;5.45;;;;;;;21.80;62.66;100072.50;12176360;19;20466;-79
2023/10/10 16:28:30;;;;;;;16.65;6.10;;;;;;;21.68;63.54;100074.19;12194544;19;20013;-79
2023/10/10 16:32:35;;;;;;;13.15;5.72;;;;;;;21.52;63.74;100076.53;12195001;19;20007;-78
2023/10/10 16:36:37;;;;;;;17.70;5.68;;;;;;;21.34;65.01;100075.53;12171756;19;20078;-78
2023/10/10 16:40:40;;;;;;;13.73;5.63;;;;;;;21.16;66.37;100075.34;12188746;19;20403;-79
2023/10/10 16:44:44;;;;;;;;;;;;;;;20.98;66.40;100076.31;12192696;19;20031;-78
2023/10/10 16:48:46;;;;;;;16.00;6.07;;;;;;;20.79;68.19;100072.78;12169990;19;19911;-78
2023/10/10 16:52:51;;;;;;;12.77;5.27;;;;;;;20.58;69.37;100081.59;12189195;19;20006;-78
2023/10/10 16:57:11;;;;;;;14.93;5.15;;;;;;;20.39;70.22;100073.25;12191670;19;20259;-78
2023/10/10 17:01:13;;;;;;;15.10;5.75;;;;;;;20.26;71.72;100074.09;12186845;19;20007;-78
2023/10/10 17:05:15;;;;;;;13.82;6.38;;;;;;;20.12;72.04;100076.03;12190947;19;20035;-78
2023/10/10 17:09:18;;;;;;;13.10;5.45;;;;;;;19.98;73.48;100079.59;12168517;19;20477;-79
2023/10/10 17:13:21;;;;;;;15.13;5.95;;;;;;;19.83;73.84;100087.41;12192820;19;20007;-78
2023/10/10 17:17:24;;;;;;;;;;;;;;;19.70;74.43;100100.22;12194709;19;20024;-80
2023/10/10 17:21:34;;;;;;;15.13;6.13;;;;;;;19.62;74.68;100092.47;12176514;19;19978;-79
2023/10/10 17:25:39;;;;;;;10.00;5.82;;;;;;;19.51;76.21;100097.38;12193747;19;20011;-78
2023/10/10 17:29:41;;;;;;;15.15;5.00;;;;;;;19.41;76.57;100084.41;12194503;19;20011;-79
2023/10/10 17:33:43;;;;;;;16.37;5.33;;;;;;;19.33;76.98;100082.28;12172502;19;20659;-78
2023/10/10 17:37:45;;;;;;;13.10;5.30;;;;;;;19.24;78.04;100081.28;12193971;19;20785;-79
2023/10/10 17:41:47;;;;;;;15.87;5.87;;;;;;;19.20;78.08;100083.03;12190887;19;20018;-78
2023/10/10 17:45:50;;;;;;;14.45;5.80;;;;;;;19.14;78.35;100093.44;12171869;19;20002;-79
2023/10/10 17:49:52;;;;;;;15.23;6.23;;;;;;;19.08;79.13;100092.69;12191577;19;20014;-79
2023/10/10 17:53:57;;;;;;;16.77;6.17;;;;;;;19.02;79.42;100096.66;12201160;19;20031;-79
2023/10/10 17:57:59;;;;;;;14.05;5.78;;;;;;;18.95;79.59;100096.22;12180627;19;20007;-79
2023/10/10 18:02:08;;;;;;;13.13;5.40;;;;;;;18.89;79.97;100097.41;12204225;19;20013;-80
2023/10/10 18:06:21;;;;;;;17.48;5.97;;;;;;;18.81;80.62;100093.31;12191967;19;20039;-79
2023/10/10 18:10:24;;;;;;;13.63;5.72;;;;;;;18.80;80.16;100090.78;12212158;19;20007;-79
2023/10/10 18:14:27;;;;;;;13.43;5.67;;;;;;;18.76;81.04;100104.53;12205334;19;20007;-78
2023/10/10 18:18:29;;;;;;;14.13;6.00;;;;;;;18.72;81.60;100102.59;12185551;19;20240;-79
2023/10/10 18:22:31;;;;;;;15.70;6.28;;;;;;;18.66;81.73;100094.28;12205984;19;21572;-78
2023/10/10 18:26:37;;;;;;;13.43;5.85;;;;;;;18.62;82.35;100093.22;12201296;19;21357;-78
2023/10/10 18:30:40;;;;;;;12.35;6.10;;;;;;;18.57;82.62;100092.44;12184933;19;20018;-79
2023/10/10 18:34:42;;;;;;;12.40;6.00;;;;;;;18.55;82.53;100087.16;12212424;19;20010;-78
2023/10/10 18:38:48;;;;;;;11.93;5.30;;;;;;;18.56;82.41;100097.22;12200934;19;20015;-78
2023/10/10 18:42:50;;;;;;;14.32;5.50;;;;;;;18.57;81.84;100090.50;12180167;19;20090;-78
2023/10/10 18:46:52;;;;;;;18.27;6.28;;;;;;;18.63;81.81;100094.06;12201657;19;20014;-78
2023/10/10 18:50:54;;;;;;;15.27;6.47;;;;;;;18.62;81.47;100096.03;12206125;19;20007;-80
2023/10/10 18:54:59;;;;;;;12.88;5.85;;;;;;;18.59;81.58;100092.97;12179507;19;20011;-78
2023/10/10 18:59:03;;;;;;;12.75;5.75;;;;;;;18.52;82.34;100096.13;12208294;19;20038;-77
2023/10/10 19:03:06;;;;;;;14.57;5.90;;;;;;;18.44;83.24;100093.97;12205626;19;20521;-78
2023/10/10 19:07:10;;;;;;;12.98;5.53;;;;;;;18.36;84.16;100089.88;12184212;19;20007;-78
2023/10/10 19:11:13;;;;;;;;;;;;;;;18.29;84.08;100102.50;12206935;19;20045;-79
2023/10/10 19:15:15;;;;;;;10.77;5.70;;;;;;;18.27;84.10;100088.84;12185347;19;19911;-78
2023/10/10 19:19:19;;;;;;;15.18;5.25;;;;;;;18.25;84.58;100095.84;12203723;19;20023;-78
2023/10/10 19:23:25;;;;;;;14.18;5.88;;;;;;;18.24;83.98;100100.59;12205291;19;20074;-79
2023/10/10 19:27:27;;;;;;;15.65;5.53;;;;;;;18.25;83.82;100096.69;12183277;19;20002;-79
2023/10/10 19:31:28;;;;;;;12.95;5.30;;;;;;;18.28;84.41;100098.88;12206504;19;20027;-79
2023/10/10 19:35:32;;;;;;;12.60;5.40;;;;;;;18.29;84.34;100100.53;12209930;19;20021;-78
2023/10/10 19:39:34;;;;;;;12.07;5.57;;;;;;;18.28;84.24;100098.88;12186815;19;20372;-79
2023/10/10 19:43:36;;;;;;;15.75;6.18;;;;;;;18.28;83.93;100098.06;12205509;19;20003;-78
2023/10/10 19:47:39;;;;;;;12.77;5.07;;;;;;;18.31;83.90;100097.47;12205961;19;20359;-79
2023/10/10 19:51:49;;;;;;;13.30;5.18;;;;;;;18.30;84.37;100090.22;12188491;19;20374;-79
2023/10/10 19:55:51;;;;;;;13.90;5.75;;;;;;;18.32;83.67;100083.25;12208646;19;20006;-79
2023/10/10 19:59:53;;;;;;;13.80;4.70;;;;;;;18.34;83.82;100077.34;12210597;19;20038;-78
2023/10/10 20:03:55;;;;;;;14.32;4.78;;;;;;;18.40;82.75;100078.94;12185546;19;20006;-79
2023/10/10 20:07:58;;;;;;;;;;;;;;;18.44;82.65;100080.00;12203815;19;20017;-79
2023/10/10 20:11:59;;;;;;;16.20;6.63;;;;;;;18.52;82.37;100075.75;12208863;19;19915;-80
2023/10/10 20:16:15;;;;;;;12.65;5.25;;;;;;;18.58;81.81;100080.97;12185355;19;20015;-79
2023/10/10 20:20:20;;;;;;;11.35;5.20;;;;;;;18.62;81.02;100076.47;12207790;19;20006;-79
2023/10/10 20:24:23;;;;;;;16.38;5.50;;;;;;;18.68;81.17;100069.72;12183313;19;20047;-79
2023/10/10 20:28:26;;;;;;;15.13;5.30;;;;;;;18.69;81.24;100067.75;12206358;19;20038;-79
2023/10/10 20:32:28;;;;;;;12.90;5.65;;;;;;;18.75;80.52;100065.75;12209005;19;20067;-79
2023/10/10 20:36:34;;;;;;;;;;;;;;;18.76;80.33;100057.06;12187370;19;20029;-79
2023/10/10 20:40:36;;;;;;;13.90;5.25;;;;;;;18.78;80.34;100056.78;12208579;19;19907;-79